Terminal Aerodrome Forecast
Issued by NWS

Home | Current Version | Previous Version | Text Only | Print | Product List | Glossary On
Versions: 1 2 3 4 5 6 7 8 9 10 11 12 13 14 15 16 17 18
811
FTUS44 KLZK 301720
TAFHOT
TAF
KHOT 301720Z 3018/0118 21009KT P6SM SCT015 OVC030
      TEMPO 3018/3020 -SHRA BKN015
     FM302000 25010G20KT P6SM SCT025 BKN050
      TEMPO 3020/3022 BKN025
     FM010000 23015G25KT P6SM SCT050 OVC100
     FM011400 26012KT P6SM SCT100 BKN250
      AMD NOT SKED=

USA.gov is the U.S. government's official web portal to all federal, state and local government web resources and services.